Time;durP1;ratioP1;P1;durP2;ratioP2;P2;SDS_P1;SDS_P2;PMS_P1;PMS_P2;Temp;Humidity;BMP_temperature;BMP_pressure;BME280_temperature;BME280_humidity;BME280_pressure;Samples;Min_cycle;Max_cycle;Signal;HPM_P1;HPM_P2
2024/01/08 00:01:33;;;;;;;5.53;2.63;;;-0.20;1.00;;;;;;20883723;28;20052;-39
2024/01/08 00:11:34;;;;;;;5.35;2.80;;;-0.10;1.00;;;;;;20891819;28;20044;-39
2024/01/08 00:21:34;;;;;;;5.63;2.35;;;0.00;1.00;;;;;;20891239;28;20033;-40
2024/01/08 00:31:35;;;;;;;5.95;2.50;;;-0.20;1.00;;;;;;20892087;28;20047;-39
2024/01/08 00:41:36;;;;;;;6.00;3.35;;;-0.20;1.00;;;;;;20894324;28;20056;-40
2024/01/08 00:51:36;;;;;;;6.13;3.17;;;-0.20;1.00;;;;;;20901428;28;20040;-40
2024/01/08 01:01:37;;;;;;;5.03;3.10;;;-0.30;1.00;;;;;;20878011;28;20440;-41
2024/01/08 01:11:37;;;;;;;5.43;3.00;;;-0.40;1.00;;;;;;20911438;28;20514;-40
2024/01/08 01:21:38;;;;;;;5.43;3.33;;;-0.40;1.00;;;;;;20927472;28;20049;-39
2024/01/08 01:31:39;;;;;;;6.40;3.40;;;-0.60;1.00;;;;;;20929781;28;20127;-39
2024/01/08 01:41:40;;;;;;;6.88;3.47;;;-0.60;1.00;;;;;;20918528;28;20045;-40
2024/01/08 01:51:41;;;;;;;7.68;3.33;;;-0.60;1.00;;;;;;20903811;28;20086;-39
2024/01/08 02:01:43;;;;;;;6.35;3.47;;;-0.70;1.00;;;;;;20887629;28;20057;-39
2024/01/08 02:11:44;;;;;;;7.88;3.38;;;-0.80;1.00;;;;;;20892844;28;20060;-39
2024/01/08 02:21:46;;;;;;;7.18;3.03;;;-0.80;1.00;;;;;;20897127;28;20044;-39
2024/01/08 02:31:46;;;;;;;6.40;3.15;;;-0.90;1.00;;;;;;20897002;28;20037;-40
2024/01/08 02:41:47;;;;;;;7.20;2.97;;;-1.00;1.00;;;;;;20896959;28;20064;-40
2024/01/08 02:51:47;;;;;;;7.47;3.47;;;-1.00;1.00;;;;;;20893840;28;20443;-39
2024/01/08 03:01:48;;;;;;;7.10;3.35;;;-1.00;1.00;;;;;;20880066;28;20092;-40
2024/01/08 03:11:48;;;;;;;9.30;3.42;;;-0.90;1.00;;;;;;20892586;28;20040;-39
2024/01/08 03:21:49;;;;;;;7.90;3.92;;;-0.90;1.00;;;;;;20891849;28;20087;-39
2024/01/08 03:31:50;;;;;;;9.70;3.55;;;-0.90;1.00;;;;;;20889601;28;20041;-39
2024/01/08 03:41:51;;;;;;;6.03;3.10;;;-1.00;1.00;;;;;;20895562;28;20097;-39
2024/01/08 03:51:51;;;;;;;8.13;3.80;;;-1.00;1.00;;;;;;20885617;28;20048;-39
2024/01/08 04:01:52;;;;;;;9.88;3.70;;;-1.10;1.00;;;;;;20887042;28;20076;-39
2024/01/08 04:11:53;;;;;;;7.80;3.65;;;-1.10;1.00;;;;;;20883098;28;20044;-39
2024/01/08 04:21:54;;;;;;;10.40;4.10;;;-1.00;1.00;;;;;;20899523;28;20049;-39
2024/01/08 04:31:55;;;;;;;8.30;4.32;;;-1.00;1.00;;;;;;20908075;28;20414;-39
2024/01/08 04:41:55;;;;;;;6.82;3.53;;;-1.00;1.00;;;;;;20903174;28;24886;-39
2024/01/08 04:51:56;;;;;;;9.20;4.13;;;-1.10;1.00;;;;;;20902582;28;20052;-39
2024/01/08 05:01:56;;;;;;;8.80;3.88;;;-1.00;1.00;;;;;;20905349;28;20569;-40
2024/01/08 05:11:57;;;;;;;8.68;4.35;;;-0.90;1.00;;;;;;20907351;28;20060;-39
2024/01/08 05:21:58;;;;;;;8.32;4.25;;;-0.90;1.00;;;;;;20904372;28;20076;-39
2024/01/08 05:31:59;;;;;;;8.30;4.28;;;-0.70;1.00;;;;;;20901358;28;20036;-39
2024/01/08 05:41:59;;;;;;;9.75;5.20;;;-0.60;1.00;;;;;;20903161;28;20551;-39
2024/01/08 05:52:00;;;;;;;10.55;5.05;;;-0.50;1.00;;;;;;20899637;28;20083;-40
2024/01/08 06:02:01;;;;;;;10.77;5.20;;;-0.40;1.00;;;;;;20896328;28;20618;-39
2024/01/08 06:12:01;;;;;;;10.57;5.32;;;-0.40;1.00;;;;;;20895207;28;20439;-39
2024/01/08 06:22:03;;;;;;;15.27;5.45;;;-0.30;1.00;;;;;;20903349;28;20566;-40
2024/01/08 06:32:03;;;;;;;10.63;5.18;;;-0.20;1.00;;;;;;20894575;28;20535;-40
2024/01/08 06:42:05;;;;;;;13.13;5.40;;;-0.20;1.00;;;;;;20894848;28;20069;-39
2024/01/08 06:52:06;;;;;;;10.43;5.00;;;-0.10;1.00;;;;;;20901121;28;20158;-40
2024/01/08 07:02:06;;;;;;;7.75;4.00;;;-0.20;1.00;;;;;;20894133;28;20048;-39
2024/01/08 07:12:08;;;;;;;7.93;4.47;;;-0.10;1.00;;;;;;20899624;28;20055;-39
2024/01/08 07:22:08;;;;;;;9.23;4.43;;;-0.10;1.00;;;;;;20863846;28;20455;-40
2024/01/08 07:32:09;;;;;;;10.60;4.50;;;0.00;1.00;;;;;;20896071;28;20044;-39
2024/01/08 07:42:10;;;;;;;11.23;4.97;;;0.10;1.00;;;;;;20900121;28;20775;-39
2024/01/08 07:52:10;;;;;;;9.32;4.15;;;0.10;1.00;;;;;;20897758;28;20090;-39
2024/01/08 08:02:11;;;;;;;6.60;3.30;;;0.20;1.00;;;;;;20906129;28;20511;-39
2024/01/08 08:12:11;;;;;;;7.53;3.65;;;0.20;1.00;;;;;;20881000;28;20463;-40
2024/01/08 08:22:12;;;;;;;5.73;3.17;;;0.20;1.00;;;;;;20867077;28;20166;-39
2024/01/08 08:32:14;;;;;;;7.30;3.22;;;0.10;1.00;;;;;;20907126;28;20452;-39
2024/01/08 08:42:14;;;;;;;6.32;3.25;;;0.20;1.00;;;;;;20882142;28;20037;-40
2024/01/08 08:52:15;;;;;;;5.97;3.13;;;0.10;1.00;;;;;;20887628;28;20055;-39
2024/01/08 09:02:16;;;;;;;7.22;3.58;;;0.20;1.00;;;;;;20856679;28;20040;-39
2024/01/08 09:12:16;;;;;;;5.95;3.35;;;0.20;1.00;;;;;;20875465;28;20119;-39
2024/01/08 09:22:17;;;;;;;7.57;3.80;;;0.20;1.00;;;;;;20866740;28;20099;-39
2024/01/08 09:32:17;;;;;;;7.10;3.50;;;0.20;1.00;;;;;;20890747;28;20048;-39
2024/01/08 09:42:20;;;;;;;8.93;4.07;;;0.30;1.00;;;;;;20892963;28;20124;-39
2024/01/08 09:52:22;;;;;;;6.85;3.75;;;0.30;1.00;;;;;;20898711;28;20443;-39
2024/01/08 10:02:23;;;;;;;8.68;3.78;;;0.40;1.00;;;;;;20878716;28;20641;-39
2024/01/08 10:12:24;;;;;;;8.68;4.07;;;0.40;1.00;;;;;;20873165;28;20107;-39
2024/01/08 10:22:26;;;;;;;7.80;3.92;;;0.50;1.00;;;;;;20880610;28;20047;-39
2024/01/08 10:32:26;;;;;;;8.93;3.80;;;0.60;1.00;;;;;;20875781;28;20039;-39
2024/01/08 10:42:27;;;;;;;6.43;3.70;;;0.50;1.00;;;;;;20897799;28;20053;-40
2024/01/08 10:52:33;;;;;;;7.95;4.00;;;0.60;1.00;;;;;;20879211;28;20432;-39
2024/01/08 11:02:37;;;;;;;7.73;3.87;;;0.50;1.00;;;;;;20838643;28;20049;-40
2024/01/08 11:12:41;;;;;;;7.50;3.90;;;0.50;1.00;;;;;;20869360;28;20051;-39
2024/01/08 11:22:42;;;;;;;8.00;3.85;;;0.60;1.00;;;;;;20872654;28;20036;-39
2024/01/08 11:33:03;;;;;;;7.25;3.28;;;0.80;1.00;;;;;;20876479;28;20056;-39
2024/01/08 11:43:05;;;;;;;9.35;3.42;;;0.80;1.00;;;;;;20883264;28;20942;-39
2024/01/08 11:53:07;;;;;;;7.90;3.60;;;1.00;1.00;;;;;;20908389;28;20065;-39
2024/01/08 12:03:10;;;;;;;6.40;3.28;;;1.10;1.00;;;;;;20892017;28;20072;-39
2024/01/08 12:13:11;;;;;;;6.18;3.70;;;0.90;1.00;;;;;;20887869;28;20373;-40
2024/01/08 12:23:12;;;;;;;5.63;3.30;;;1.50;1.00;;;;;;20868303;28;20693;-40
2024/01/08 12:33:13;;;;;;;7.00;3.72;;;1.40;1.00;;;;;;20838209;28;20047;-39
2024/01/08 12:43:14;;;;;;;5.63;3.22;;;1.20;1.00;;;;;;20876256;28;20140;-39
2024/01/08 12:53:14;;;;;;;6.80;3.80;;;1.20;1.00;;;;;;20893466;28;20420;-39
2024/01/08 13:03:15;;;;;;;7.82;3.88;;;1.60;1.00;;;;;;20889982;28;20188;-40
2024/01/08 13:13:16;;;;;;;6.05;3.53;;;1.60;1.00;;;;;;20877399;28;20047;-39
2024/01/08 13:23:16;;;;;;;8.98;3.80;;;1.50;1.00;;;;;;20890032;28;20076;-39
2024/01/08 13:33:17;;;;;;;5.15;3.03;;;1.70;1.00;;;;;;20892691;28;20407;-39
2024/01/08 13:43:20;;;;;;;5.03;3.05;;;1.60;1.00;;;;;;20898577;28;20053;-39
2024/01/08 13:53:20;;;;;;;6.05;3.00;;;1.50;1.00;;;;;;20911257;28;20136;-39
2024/01/08 14:03:21;;;;;;;8.13;3.17;;;1.40;1.00;;;;;;20905904;28;20049;-38
2024/01/08 14:13:22;;;;;;;8.85;3.60;;;1.40;1.00;;;;;;20906981;28;20504;-39
2024/01/08 14:23:22;;;;;;;6.00;3.08;;;1.30;1.00;;;;;;20898446;28;20045;-39
2024/01/08 14:33:24;;;;;;;6.73;2.40;;;1.30;1.00;;;;;;20894648;28;20123;-39
2024/01/08 14:43:24;;;;;;;5.13;2.15;;;1.20;1.00;;;;;;20886577;28;20550;-39
2024/01/08 14:53:25;;;;;;;4.55;2.25;;;1.10;1.00;;;;;;20885293;28;20046;-39
2024/01/08 15:03:25;;;;;;;4.80;2.20;;;1.10;1.00;;;;;;20878169;28;20189;-39
2024/01/08 15:13:26;;;;;;;5.25;2.28;;;1.00;1.00;;;;;;20877944;28;20284;-39
2024/01/08 15:23:27;;;;;;;4.93;2.72;;;0.80;1.00;;;;;;20868618;28;20595;-39
2024/01/08 15:33:28;;;;;;;6.78;3.38;;;0.70;1.00;;;;;;20875419;28;20589;-39
2024/01/08 15:43:29;;;;;;;7.43;2.90;;;0.70;1.00;;;;;;20892581;28;20075;-39
2024/01/08 15:53:29;;;;;;;4.88;2.65;;;0.60;1.00;;;;;;20894607;28;20442;-38
2024/01/08 16:03:30;;;;;;;6.13;2.53;;;0.50;1.00;;;;;;20862844;28;20045;-39
2024/01/08 16:13:30;;;;;;;8.23;2.90;;;0.40;1.00;;;;;;20873003;28;20041;-39
2024/01/08 16:23:31;;;;;;;5.43;2.57;;;0.40;1.00;;;;;;20898669;28;20454;-38
2024/01/08 16:33:32;;;;;;;8.57;3.75;;;0.20;1.00;;;;;;20922457;28;21051;-39
2024/01/08 16:43:33;;;;;;;6.68;3.28;;;0.10;1.00;;;;;;20905257;28;20508;-39
2024/01/08 16:53:37;;;;;;;9.45;3.53;;;0.20;1.00;;;;;;20880599;28;20450;-38
2024/01/08 17:03:37;;;;;;;7.35;3.47;;;0.10;1.00;;;;;;20887533;28;20123;-39
2024/01/08 17:13:38;;;;;;;8.07;3.77;;;0.10;1.00;;;;;;20874939;28;20037;-38
2024/01/08 17:23:38;;;;;;;7.65;3.40;;;0.10;1.00;;;;;;20888884;28;20470;-38
2024/01/08 17:33:39;;;;;;;7.05;3.80;;;0.00;1.00;;;;;;20924068;28;20470;-39
2024/01/08 17:43:40;;;;;;;6.80;3.38;;;-0.10;1.00;;;;;;20890193;28;20455;-39
2024/01/08 17:53:41;;;;;;;8.45;3.40;;;0.00;1.00;;;;;;20901084;28;20071;-39
2024/01/08 18:03:41;;;;;;;8.45;3.35;;;-0.10;1.00;;;;;;20890173;28;20146;-39
2024/01/08 18:13:44;;;;;;;9.23;2.85;;;-0.10;1.00;;;;;;20889837;28;20146;-39
2024/01/08 18:23:44;;;;;;;6.88;3.15;;;-0.10;1.00;;;;;;20882754;28;20040;-39
2024/01/08 18:33:47;;;;;;;6.93;3.58;;;-0.20;1.00;;;;;;20865370;28;20452;-39
2024/01/08 18:43:48;;;;;;;7.28;3.60;;;-0.30;1.00;;;;;;20859107;28;20151;-38
2024/01/08 18:53:50;;;;;;;10.20;3.35;;;-0.20;1.00;;;;;;20872897;28;20044;-39
2024/01/08 19:03:50;;;;;;;8.65;4.05;;;-0.20;1.00;;;;;;20890717;28;20032;-39
2024/01/08 19:13:51;;;;;;;8.77;3.80;;;-0.30;1.00;;;;;;20865561;28;20036;-38
2024/01/08 19:23:51;;;;;;;6.95;3.45;;;-0.40;1.00;;;;;;20877723;28;20865;-39
2024/01/08 19:33:52;;;;;;;9.93;4.10;;;-0.40;1.00;;;;;;20878403;28;20119;-39
2024/01/08 19:43:53;;;;;;;8.85;3.47;;;-0.40;1.00;;;;;;20901584;28;20549;-39
2024/01/08 19:53:54;;;;;;;7.03;3.60;;;-0.40;1.00;;;;;;20913888;28;20048;-39
2024/01/08 20:03:54;;;;;;;7.45;3.92;;;-0.40;1.00;;;;;;20916429;28;20540;-39
2024/01/08 20:13:55;;;;;;;6.45;3.13;;;-0.50;1.00;;;;;;20899900;28;20049;-39
2024/01/08 20:23:56;;;;;;;8.02;3.67;;;-0.50;1.00;;;;;;20912055;28;20512;-38
2024/01/08 20:33:57;;;;;;;7.80;2.78;;;-0.60;1.00;;;;;;20910799;28;20052;-38
2024/01/08 20:43:57;;;;;;;8.40;3.22;;;-0.60;1.00;;;;;;20892969;28;20055;-39
2024/01/08 20:53:58;;;;;;;7.95;3.22;;;-0.70;1.00;;;;;;20888542;28;20044;-39
2024/01/08 21:03:59;;;;;;;7.27;3.07;;;-0.70;1.00;;;;;;20890997;28;20072;-40
2024/01/08 21:13:59;;;;;;;6.18;3.00;;;-0.70;1.00;;;;;;20903097;28;20490;-39
2024/01/08 21:24:00;;;;;;;8.88;3.55;;;-0.70;1.00;;;;;;20904552;28;20411;-38
2024/01/08 21:34:00;;;;;;;7.22;3.15;;;-0.70;1.00;;;;;;20902915;28;20872;-40
2024/01/08 21:44:01;;;;;;;8.88;3.28;;;-0.80;1.00;;;;;;20904770;28;20428;-39
2024/01/08 21:54:02;;;;;;;7.97;3.92;;;-0.80;1.00;;;;;;20910324;28;20055;-39
2024/01/08 22:04:04;;;;;;;8.75;3.40;;;-0.90;1.00;;;;;;20904554;28;20523;-39
2024/01/08 22:14:05;;;;;;;5.82;3.35;;;-1.00;1.00;;;;;;20880104;28;20432;-40
2024/01/08 22:24:06;;;;;;;7.55;3.63;;;-0.90;1.00;;;;;;20894138;28;20044;-39
2024/01/08 22:34:06;;;;;;;6.65;3.20;;;-1.00;1.00;;;;;;20905136;28;20100;-38
2024/01/08 22:44:07;;;;;;;8.23;3.58;;;-1.00;1.00;;;;;;20901681;28;20082;-39
2024/01/08 22:54:08;;;;;;;6.82;3.67;;;-0.90;1.00;;;;;;20912698;28;20075;-39
2024/01/08 23:04:08;;;;;;;7.50;3.25;;;-1.10;1.00;;;;;;20909728;28;20045;-38
2024/01/08 23:14:09;;;;;;;7.78;3.33;;;-1.00;1.00;;;;;;20904995;28;20443;-38
2024/01/08 23:24:11;;;;;;;6.80;3.10;;;-1.10;1.00;;;;;;20899370;28;20150;-39
2024/01/08 23:34:11;;;;;;;8.48;3.10;;;-1.10;1.00;;;;;;20897439;28;20523;-38
2024/01/08 23:44:12;;;;;;;6.05;2.70;;;-1.20;1.00;;;;;;20905180;28;20056;-38
2024/01/08 23:54:13;;;;;;;9.10;3.27;;;-1.20;1.00;;;;;;20904492;28;20041;-39
